NORTHEAST SUFFOLK  -  Areal Flood Advisory Areal Flood Advisory        NORTHWEST SUFFOLK  -  Areal Flood Advisory Areal Flood Advisory        SOUTHEAST SUFFOLK  -  Areal Flood Advisory Areal Flood Advisory        SOUTHWEST SUFFOLK  -  Areal Flood Advisory Areal Flood Advisory      

Active alerts

Northwest Suffolk
  Details for Northwest Suffolk Areal Flood Advisory
Southwest Suffolk
  Details for Southwest Suffolk Areal Flood Advisory
Northeast Suffolk
  Details for Northeast Suffolk Areal Flood Advisory
Southeast Suffolk
  Details for Southeast Suffolk Areal Flood Advisory


WXM80 ListenWXM80 Stop

You find our weather info also at:

UK Metoffice

WeatherCloud

Weather Underground

Northeastern Weather Network

AWEKAS

Citizen Weather Observer Program (CWOP)

HAMweather, WeatherForYou, PWS Weather


Weather Underground History page Text

Daily Summary for January 03, 2018 Units:  English    Metric   Both
« Previous Day
Next Day »
Daily Weekly Monthly Yearly Custom
  High: Low: Average:
Temperature: 29.9 °F 16.5 °F 22.4 °F
Dew Point: 23.8 °F 6.4 °F 11.7 °F
Humidity: 87 % 48 % 64 %
Wind Speed: 7.8 mph 0.0 mph 1.6 mph
Wind Gust: 15.0 mph - -
Wind:- - SSW
Pressure: 30.36 in 29.78 in -
Precipitation: 0.00 in    
Historical Graphs
 
 
Tabular Data for January 03, 2018
Time Temperature Dew Point Pressure Wind Wind Speed Wind Gust Humidity Rainfall Rate (Hourly)
00:02 19.4 °F 8.5 °F 30.32 in WSW 3.1 mph 6.0 mph 62 % 0.00 in
00:06 19.4 °F 8.5 °F 30.32 in WSW 2.3 mph 3.5 mph 62 % 0.00 in
00:11 19.4 °F 8.5 °F 30.32 in SW 3.4 mph 6.9 mph 62 % 0.00 in
00:16 19.4 °F 8.5 °F 30.32 in WSW 4.2 mph 6.9 mph 62 % 0.00 in
00:21 19.3 °F 8.4 °F 30.32 in WSW 5.0 mph 9.2 mph 62 % 0.00 in
00:22 19.3 °F 8.4 °F 30.32 in WNW 4.1 mph 9.2 mph 62 % 0.00 in
00:27 19.3 °F 8.4 °F 30.32 in West 4.6 mph 9.2 mph 62 % 0.00 in
00:28 19.3 °F 8.4 °F 30.32 in WSW 3.4 mph 9.2 mph 62 % 0.00 in
00:31 19.4 °F 8.5 °F 30.32 in WSW 3.4 mph 7.0 mph 62 % 0.00 in
00:36 19.4 °F 8.5 °F 30.32 in WSW 2.3 mph 5.8 mph 62 % 0.00 in
00:38 19.4 °F 8.5 °F 30.32 in SW 1.8 mph 4.6 mph 62 % 0.00 in
00:43 19.5 °F 8.9 °F 30.32 in WSW 4.5 mph 9.2 mph 63 % 0.00 in
00:47 19.6 °F 9.0 °F 30.31 in West 7.7 mph 11.5 mph 63 % 0.00 in
00:53 19.7 °F 9.1 °F 30.31 in SW 7.8 mph 15.0 mph 63 % 0.00 in
00:56 19.8 °F 8.9 °F 30.32 in SW 6.6 mph 12.7 mph 62 % 0.00 in
00:57 19.9 °F 9.0 °F 30.32 in WSW 2.8 mph 9.2 mph 62 % 0.00 in
01:02 19.9 °F 9.3 °F 30.32 in WSW 7.0 mph 10.4 mph 63 % 0.00 in
01:07 19.9 °F 9.3 °F 30.32 in NW 3.8 mph 7.0 mph 63 % 0.00 in
01:12 20.0 °F 9.4 °F 30.32 in WSW 1.7 mph 5.0 mph 63 % 0.00 in
01:16 19.9 °F 9.3 °F 30.32 in WSW 2.3 mph 3.5 mph 63 % 0.00 in
01:21 19.9 °F 9.3 °F 30.32 in SW 2.9 mph 9.0 mph 63 % 0.00 in
01:24 19.8 °F 9.2 °F 30.33 in SW 4.6 mph 6.0 mph 63 % 0.00 in
01:30 19.7 °F 8.8 °F 30.32 in West 5.6 mph 5.8 mph 62 % 0.00 in
01:35 19.7 °F 8.8 °F 30.32 in WSW 2.6 mph 6.9 mph 62 % 0.00 in
01:37 19.6 °F 8.7 °F 30.32 in SW 2.7 mph 5.8 mph 62 % 0.00 in
01:39 19.6 °F 8.7 °F 30.32 in WSW 2.8 mph 5.8 mph 62 % 0.00 in
01:44 19.5 °F 8.6 °F 30.33 in SW 2.0 mph 3.5 mph 62 % 0.00 in
01:45 19.5 °F 8.6 °F 30.32 in SSW 2.1 mph 5.0 mph 62 % 0.00 in
01:50 19.3 °F 8.4 °F 30.32 in SSW 2.7 mph 4.6 mph 62 % 0.00 in
01:55 19.2 °F 8.3 °F 30.32 in WSW 4.0 mph 6.9 mph 62 % 0.00 in
01:58 19.1 °F 8.2 °F 30.32 in West 0.9 mph 4.6 mph 62 % 0.00 in
02:03 18.9 °F 8.0 °F 30.33 in South 3.7 mph 8.1 mph 62 % 0.00 in
02:10 18.7 °F 7.8 °F 30.33 in SW 3.4 mph 5.8 mph 62 % 0.00 in
02:15 18.6 °F 7.7 °F 30.33 in WSW 4.1 mph 6.9 mph 62 % 0.00 in
02:16 18.5 °F 7.6 °F 30.33 in SW 2.6 mph 4.6 mph 62 % 0.00 in
02:21 18.4 °F 7.5 °F 30.33 in SW 2.6 mph 4.6 mph 62 % 0.00 in
02:26 18.3 °F 7.4 °F 30.33 in SW 2.9 mph 5.0 mph 62 % 0.00 in
02:27 18.3 °F 7.4 °F 30.33 in SSW 2.7 mph 4.6 mph 62 % 0.00 in
02:32 18.2 °F 7.3 °F 30.33 in WSW 4.0 mph 6.0 mph 62 % 0.00 in
02:35 18.1 °F 7.3 °F 30.33 in WSW 4.0 mph 8.1 mph 62 % 0.00 in
02:36 18.1 °F 7.3 °F 30.33 in SW 2.5 mph 5.8 mph 62 % 0.00 in
02:41 18.0 °F 7.2 °F 30.34 in SW 2.8 mph 6.9 mph 62 % 0.00 in
02:42 17.9 °F 7.1 °F 30.34 in SSW 1.5 mph 4.6 mph 62 % 0.00 in
02:47 17.9 °F 7.1 °F 30.33 in SW 2.5 mph 8.1 mph 62 % 0.00 in
02:51 17.8 °F 7.0 °F 30.34 in SSW 0.7 mph 4.6 mph 62 % 0.00 in
02:52 17.7 °F 6.9 °F 30.34 in WSW 0.9 mph 4.6 mph 62 % 0.00 in
02:57 17.7 °F 6.9 °F 30.34 in SW 3.5 mph 6.9 mph 62 % 0.00 in
02:58 17.6 °F 6.8 °F 30.34 in SW 1.1 mph 3.5 mph 62 % 0.00 in
03:03 17.6 °F 6.8 °F 30.34 in SSW 3.2 mph 5.8 mph 62 % 0.00 in
03:07 17.5 °F 6.7 °F 30.34 in WSW 1.7 mph 3.5 mph 62 % 0.00 in
03:13 17.5 °F 7.0 °F 30.34 in SW 0.5 mph 2.3 mph 63 % 0.00 in
03:16 17.4 °F 6.9 °F 30.34 in WSW 1.9 mph 7.0 mph 63 % 0.00 in
03:26 17.3 °F 6.8 °F 30.34 in SSW 1.7 mph 4.6 mph 63 % 0.00 in
03:28 17.3 °F 6.8 °F 30.34 in SW 2.3 mph 4.6 mph 63 % 0.00 in
03:33 17.3 °F 6.8 °F 30.33 in WSW 3.1 mph 5.8 mph 63 % 0.00 in
03:38 17.3 °F 6.8 °F 30.33 in West 0.9 mph 7.0 mph 63 % 0.00 in
03:43 17.3 °F 6.8 °F 30.33 in WSW 2.1 mph 4.0 mph 63 % 0.00 in
03:45 17.3 °F 6.8 °F 30.33 in SW 1.2 mph 3.5 mph 63 % 0.00 in
03:50 17.3 °F 7.2 °F 30.34 in SW 3.7 mph 6.0 mph 64 % 0.00 in
03:55 17.3 °F 7.2 °F 30.34 in SSW 1.0 mph 5.8 mph 64 % 0.00 in
03:58 17.2 °F 7.1 °F 30.33 in WSW 2.5 mph 4.6 mph 64 % 0.00 in
04:04 17.2 °F 6.8 °F 30.32 in WSW 2.6 mph 5.0 mph 63 % 0.00 in
04:09 17.2 °F 7.1 °F 30.32 in West 2.6 mph 4.6 mph 64 % 0.00 in
04:14 17.2 °F 7.1 °F 30.32 in WSW 3.4 mph 5.8 mph 64 % 0.00 in
04:17 17.2 °F 7.1 °F 30.33 in WSW 3.2 mph 7.0 mph 64 % 0.00 in
04:18 17.2 °F 7.1 °F 30.32 in WSW 1.0 mph 6.9 mph 64 % 0.00 in
04:23 17.2 °F 7.4 °F 30.32 in SW 1.6 mph 4.0 mph 65 % 0.00 in
04:24 17.2 °F 7.4 °F 30.33 in WSW 2.9 mph 5.8 mph 65 % 0.00 in
04:29 17.2 °F 7.4 °F 30.32 in West 1.8 mph 3.5 mph 65 % 0.00 in
04:34 17.1 °F 7.3 °F 30.33 in WSW 1.3 mph 3.5 mph 65 % 0.00 in
04:39 17.1 °F 7.3 °F 30.32 in West 1.4 mph 4.6 mph 65 % 0.00 in
04:42 17.1 °F 7.3 °F 30.32 in WSW 2.9 mph 4.6 mph 65 % 0.00 in
04:47 17.1 °F 7.3 °F 30.33 in WSW 2.9 mph 5.8 mph 65 % 0.00 in
04:50 17.0 °F 7.3 °F 30.32 in SW 0.8 mph 2.3 mph 65 % 0.00 in
04:55 17.0 °F 7.3 °F 30.32 in West 1.2 mph 2.3 mph 65 % 0.00 in
04:59 17.0 °F 7.3 °F 30.32 in SSW 2.9 mph 4.0 mph 65 % 0.00 in
05:00 17.0 °F 7.3 °F 30.32 in SW 2.4 mph 4.6 mph 65 % 0.00 in
05:05 16.9 °F 7.5 °F 30.32 in WSW 1.6 mph 2.3 mph 66 % 0.00 in
05:10 17.0 °F 7.9 °F 30.31 in NNW 6.8 mph 10.4 mph 67 % 0.00 in
05:11 17.0 °F 7.9 °F 30.32 in West 4.2 mph 9.2 mph 67 % 0.00 in
05:17 17.2 °F 8.1 °F 30.32 in WSW 4.8 mph 6.0 mph 67 % 0.00 in
05:21 17.4 °F 8.3 °F 30.31 in WNW 3.1 mph 8.1 mph 67 % 0.00 in
05:26 17.7 °F 8.3 °F 30.30 in WNW 2.0 mph 5.8 mph 66 % 0.00 in
05:27 17.7 °F 8.3 °F 30.31 in WNW 3.9 mph 6.9 mph 66 % 0.00 in
05:32 17.9 °F 8.5 °F 30.32 in WSW 1.0 mph 3.5 mph 66 % 0.00 in
05:35 17.9 °F 8.1 °F 30.33 in WNW 5.0 mph 10.4 mph 65 % 0.00 in
05:40 18.1 °F 8.3 °F 30.31 in WNW 5.4 mph 12.0 mph 65 % 0.00 in
05:43 18.2 °F 8.4 °F 30.31 in West 4.2 mph 10.4 mph 65 % 0.00 in
05:46 18.2 °F 8.4 °F 30.32 in WSW 5.2 mph 7.0 mph 65 % 0.00 in
05:49 18.3 °F 8.5 °F 30.32 in Calm   2.3 mph 65 % 0.00 in
05:54 18.3 °F 8.1 °F 30.33 in WSW 2.7 mph 5.0 mph 64 % 0.00 in
05:57 18.3 °F 8.1 °F 30.33 in Calm   2.3 mph 64 % 0.00 in
06:02 18.2 °F 8.1 °F 30.33 in WSW 2.4 mph 5.8 mph 64 % 0.00 in
06:03 18.2 °F 8.1 °F 30.33 in WSW 1.7 mph 3.5 mph 64 % 0.00 in
06:08 18.2 °F 8.1 °F 30.32 in West 2.0 mph 2.3 mph 64 % 0.00 in
06:11 18.2 °F 8.1 °F 30.33 in West 4.5 mph 5.0 mph 64 % 0.00 in
06:13 18.1 °F 7.6 °F 30.33 in West 3.4 mph 6.9 mph 63 % 0.00 in
06:17 18.1 °F 7.6 °F 30.33 in West 1.6 mph 4.6 mph 63 % 0.00 in
06:22 18.1 °F 7.6 °F 30.32 in WNW 3.2 mph 4.6 mph 63 % 0.00 in
06:24 18.1 °F 8.0 °F 30.32 in West 3.0 mph 5.8 mph 64 % 0.00 in
06:29 18.0 °F 7.9 °F 30.32 in West 1.0 mph 3.5 mph 64 % 0.00 in
06:31 18.0 °F 7.9 °F 30.32 in WSW 4.2 mph 6.0 mph 64 % 0.00 in
06:35 18.0 °F 7.9 °F 30.32 in WSW 3.1 mph 4.6 mph 64 % 0.00 in
06:40 17.9 °F 7.8 °F 30.33 in WSW 3.8 mph 6.0 mph 64 % 0.00 in
06:44 17.9 °F 7.8 °F 30.33 in WNW 2.6 mph 4.0 mph 64 % 0.00 in
06:50 17.9 °F 8.1 °F 30.32 in WNW 3.1 mph 5.8 mph 65 % 0.00 in
06:54 17.9 °F 8.1 °F 30.33 in WNW 4.1 mph 5.0 mph 65 % 0.00 in
06:59 17.8 °F 8.0 °F 30.33 in West 1.2 mph 2.3 mph 65 % 0.00 in
07:01 17.8 °F 8.0 °F 30.33 in West 1.2 mph 3.5 mph 65 % 0.00 in
07:06 17.7 °F 7.6 °F 30.33 in WSW 2.9 mph 5.8 mph 64 % 0.00 in
07:09 17.7 °F 7.6 °F 30.33 in West 2.7 mph 3.5 mph 64 % 0.00 in
07:11 17.7 °F 7.6 °F 30.33 in West 1.2 mph 3.5 mph 64 % 0.00 in
07:14 17.7 °F 7.6 °F 30.33 in WSW 1.0 mph 2.3 mph 64 % 0.00 in
07:19 17.6 °F 7.5 °F 30.33 in SSW 1.9 mph 3.5 mph 64 % 0.00 in
07:21 17.6 °F 7.8 °F 30.33 in SW 1.8 mph 3.5 mph 65 % 0.00 in
07:24 17.5 °F 7.7 °F 30.33 in SW 0.8 mph 3.0 mph 65 % 0.00 in
07:28 17.5 °F 7.7 °F 30.34 in Calm   3.5 mph 65 % 0.00 in
07:33 17.3 °F 7.5 °F 30.34 in Calm     65 % 0.00 in
07:34 17.3 °F 7.5 °F 30.34 in SW 0.1 mph 1.2 mph 65 % 0.00 in
07:39 17.2 °F 7.4 °F 30.34 in Calm   1.2 mph 65 % 0.00 in
07:42 17.1 °F 7.3 °F 30.34 in Calm     65 % 0.00 in
07:47 17.0 °F 7.3 °F 30.34 in SW 1.9 mph 3.5 mph 65 % 0.00 in
07:52 16.8 °F 7.1 °F 30.34 in SW 0.5 mph 2.0 mph 65 % 0.00 in
07:53 16.9 °F 7.2 °F 30.34 in SW 1.2 mph 2.0 mph 65 % 0.00 in
07:55 16.8 °F 7.1 °F 30.34 in SW 0.7 mph 2.3 mph 65 % 0.00 in
08:00 16.7 °F 7.0 °F 30.34 in SW 1.0 mph 3.0 mph 65 % 0.00 in
08:01 16.7 °F 7.0 °F 30.34 in SW 1.7 mph 3.5 mph 65 % 0.00 in
08:07 16.6 °F 6.9 °F 30.35 in Calm     65 % 0.00 in
08:08 16.6 °F 6.9 °F 30.35 in SW 1.5 mph 3.0 mph 65 % 0.00 in
08:13 16.5 °F 6.8 °F 30.35 in SW 1.2 mph 3.0 mph 65 % 0.00 in
08:16 16.5 °F 6.8 °F 30.35 in SW 2.0 mph 4.0 mph 65 % 0.00 in
08:21 16.5 °F 6.8 °F 30.35 in SW 0.6 mph 3.5 mph 65 % 0.00 in
08:24 16.6 °F 6.9 °F 30.35 in SSW 2.4 mph 3.5 mph 65 % 0.00 in
08:29 16.6 °F 6.9 °F 30.35 in SSW 1.7 mph 5.0 mph 65 % 0.00 in
08:34 16.7 °F 6.6 °F 30.35 in West 3.0 mph 3.5 mph 64 % 0.00 in
08:37 16.7 °F 6.6 °F 30.35 in WSW 1.8 mph 3.0 mph 64 % 0.00 in
08:42 16.8 °F 6.4 °F 30.35 in WSW 0.6 mph 3.0 mph 63 % 0.00 in
08:43 16.9 °F 6.5 °F 30.34 in SW 3.1 mph 3.1 mph 63 % 0.00 in
08:48 17.1 °F 6.7 °F 30.34 in West 1.1 mph 3.5 mph 63 % 0.00 in
08:49 17.1 °F 6.7 °F 30.34 in SW 3.0 mph 3.5 mph 63 % 0.00 in
08:54 17.3 °F 6.8 °F 30.35 in West 5.4 mph 8.1 mph 63 % 0.00 in
08:56 17.5 °F 7.0 °F 30.35 in SSW 3.0 mph 6.0 mph 63 % 0.00 in
08:58 17.6 °F 7.1 °F 30.35 in South 2.3 mph 5.0 mph 63 % 0.00 in
09:04 17.9 °F 7.1 °F 30.35 in WNW 0.3 mph 3.5 mph 62 % 0.00 in
09:05 18.0 °F 7.2 °F 30.35 in West 3.4 mph 5.0 mph 62 % 0.00 in
09:11 18.2 °F 7.0 °F 30.35 in WSW 2.0 mph 8.0 mph 61 % 0.00 in
09:16 18.5 °F 7.2 °F 30.34 in WSW 1.0 mph 7.0 mph 61 % 0.00 in
09:20 18.7 °F 7.5 °F 30.35 in SW 5.0 mph 6.0 mph 61 % 0.00 in
09:25 19.0 °F 7.7 °F 30.35 in WSW 1.9 mph 4.6 mph 61 % 0.00 in
09:29 19.2 °F 7.9 °F 30.35 in SW 2.4 mph 3.5 mph 61 % 0.00 in
09:34 19.5 °F 8.2 °F 30.35 in West 0.8 mph 3.5 mph 61 % 0.00 in
09:36 19.7 °F 8.4 °F 30.36 in SSW 1.5 mph 4.0 mph 61 % 0.00 in
09:39 19.8 °F 8.5 °F 30.35 in SW 2.1 mph 4.6 mph 61 % 0.00 in
09:44 20.3 °F 8.6 °F 30.35 in West 0.1 mph 2.3 mph 60 % 0.00 in
09:49 20.8 °F 8.7 °F 30.35 in West 0.2 mph 2.3 mph 59 % 0.00 in
09:51 21.0 °F 8.9 °F 30.34 in West 1.3 mph 6.0 mph 59 % 0.00 in
09:54 21.3 °F 8.8 °F 30.34 in SW 2.7 mph 3.5 mph 58 % 0.00 in
09:59 21.9 °F 9.0 °F 30.35 in WSW 2.9 mph 6.0 mph 57 % 0.00 in
10:04 22.3 °F 9.0 °F 30.34 in WSW 0.1 mph 2.3 mph 56 % 0.00 in
10:05 22.3 °F 9.0 °F 30.34 in Calm   2.3 mph 56 % 0.00 in
10:10 22.7 °F 9.3 °F 30.34 in West 2.1 mph 3.5 mph 56 % 0.00 in
10:14 23.0 °F 9.2 °F 30.34 in SW 3.7 mph 6.0 mph 55 % 0.00 in
10:19 23.3 °F 9.1 °F 30.34 in South 1.2 mph 3.5 mph 54 % 0.00 in
10:21 23.4 °F 9.2 °F 30.34 in West 3.8 mph 4.6 mph 54 % 0.00 in
10:26 23.7 °F 9.0 °F 30.34 in SW 2.8 mph 5.8 mph 53 % 0.00 in
10:31 23.9 °F 8.8 °F 30.34 in SW 3.8 mph 5.8 mph 52 % 0.00 in
10:35 24.0 °F 9.3 °F 30.34 in SSW 3.8 mph 5.8 mph 53 % 0.00 in
10:40 24.3 °F 9.2 °F 30.34 in WSW 3.0 mph 4.0 mph 52 % 0.00 in
10:41 24.3 °F 8.7 °F 30.33 in SW 3.2 mph 4.6 mph 51 % 0.00 in
10:42 24.3 °F 8.7 °F 30.33 in WSW 1.7 mph 3.5 mph 51 % 0.00 in
10:47 24.5 °F 8.9 °F 30.33 in West 1.8 mph 6.9 mph 51 % 0.00 in
10:48 24.5 °F 8.9 °F 30.33 in West 1.6 mph 4.0 mph 51 % 0.00 in
10:53 24.7 °F 8.7 °F 30.33 in WNW 2.4 mph 5.0 mph 50 % 0.00 in
10:58 24.7 °F 8.7 °F 30.33 in WNW 3.5 mph 5.0 mph 50 % 0.00 in
11:02 24.7 °F 8.7 °F 30.32 in WNW 0.3 mph 2.3 mph 50 % 0.00 in
11:05 24.8 °F 8.8 °F 30.32 in WSW 1.9 mph 5.0 mph 50 % 0.00 in
11:10 24.7 °F 8.7 °F 30.32 in West 2.0 mph 3.5 mph 50 % 0.00 in
11:11 24.7 °F 8.2 °F 30.32 in WNW 1.8 mph 3.5 mph 49 % 0.00 in
11:16 24.8 °F 8.8 °F 30.31 in SW 2.4 mph 4.6 mph 50 % 0.00 in
11:21 24.8 °F 9.2 °F 30.32 in WNW 1.2 mph 3.5 mph 51 % 0.00 in
11:22 24.8 °F 9.2 °F 30.32 in WNW 1.9 mph 4.0 mph 51 % 0.00 in
11:25 24.8 °F 8.8 °F 30.31 in WNW 0.8 mph 3.5 mph 50 % 0.00 in
11:30 24.9 °F 9.3 °F 30.31 in NW 3.2 mph 4.6 mph 51 % 0.00 in
11:31 24.9 °F 8.9 °F 30.31 in WNW 3.0 mph 5.0 mph 50 % 0.00 in
11:39 24.9 °F 8.9 °F 30.30 in WNW 1.9 mph 2.0 mph 50 % 0.00 in
11:42 24.9 °F 8.9 °F 30.30 in WNW 0.6 mph 2.3 mph 50 % 0.00 in
11:44 24.9 °F 8.9 °F 30.30 in WNW 0.7 mph 1.2 mph 50 % 0.00 in
11:46 24.9 °F 8.9 °F 30.30 in WNW 1.0 mph 5.0 mph 50 % 0.00 in
11:51 25.0 °F 8.9 °F 30.30 in WNW 3.0 mph 5.0 mph 50 % 0.00 in
11:56 25.0 °F 9.4 °F 30.30 in WNW 2.0 mph 5.0 mph 51 % 0.00 in
11:58 25.0 °F 9.0 °F 30.30 in WNW 3.4 mph 4.6 mph 50 % 0.00 in
12:03 25.1 °F 8.6 °F 30.30 in WNW 3.2 mph 4.0 mph 49 % 0.00 in
12:05 25.1 °F 8.6 °F 30.30 in WNW 3.1 mph 4.6 mph 49 % 0.00 in
12:10 25.2 °F 8.7 °F 30.30 in WNW 0.7 mph 3.5 mph 49 % 0.00 in
12:11 25.2 °F 8.7 °F 30.30 in WNW 1.0 mph 5.0 mph 49 % 0.00 in
12:16 25.4 °F 9.3 °F 30.30 in NW 1.0 mph 5.0 mph 50 % 0.00 in
12:21 25.7 °F 9.6 °F 30.29 in WSW 2.4 mph 3.5 mph 50 % 0.00 in
12:23 25.8 °F 9.2 °F 30.29 in West 0.5 mph 2.3 mph 49 % 0.00 in
12:28 26.1 °F 10.0 °F 30.29 in NNW 0.6 mph 3.5 mph 50 % 0.00 in
12:29 26.2 °F 10.1 °F 30.28 in WNW 2.4 mph 3.5 mph 50 % 0.00 in
12:33 26.3 °F 9.7 °F 30.28 in WNW 0.7 mph 3.5 mph 49 % 0.00 in
12:38 26.7 °F 10.1 °F 30.27 in NNW 2.5 mph 3.5 mph 49 % 0.00 in
12:43 26.9 °F 9.8 °F 30.27 in NW 1.5 mph 3.5 mph 48 % 0.00 in
12:45 27.0 °F 9.9 °F 30.27 in NW 1.4 mph 3.5 mph 48 % 0.00 in
12:50 27.2 °F 10.1 °F 30.27 in WNW 2.9 mph 5.8 mph 48 % 0.00 in
12:52 27.3 °F 10.2 °F 30.26 in WNW 2.5 mph 5.8 mph 48 % 0.00 in
12:54 27.4 °F 11.2 °F 30.26 in WNW 1.9 mph 4.0 mph 50 % 0.00 in
13:00 27.7 °F 12.3 °F 30.26 in NNW 1.5 mph 3.5 mph 52 % 0.00 in
13:01 27.8 °F 12.4 °F 30.26 in NW 2.9 mph 4.6 mph 52 % 0.00 in
13:07 27.9 °F 13.0 °F 30.26 in NNW 2.0 mph 3.5 mph 53 % 0.00 in
13:12 28.1 °F 12.7 °F 30.26 in NNW 0.8 mph 3.5 mph 52 % 0.00 in
13:17 28.1 °F 12.3 °F 30.26 in WNW 2.1 mph 3.5 mph 51 % 0.00 in
13:19 28.2 °F 12.4 °F 30.26 in WNW 2.3 mph 4.6 mph 51 % 0.00 in
13:24 28.3 °F 12.5 °F 30.26 in WNW 0.9 mph 4.6 mph 51 % 0.00 in
13:28 28.6 °F 13.2 °F 30.25 in WNW 0.7 mph 2.3 mph 52 % 0.00 in
13:33 28.9 °F 13.9 °F 30.25 in WNW 1.4 mph 2.3 mph 53 % 0.00 in
13:34 29.0 °F 13.6 °F 30.25 in NW 1.7 mph 3.5 mph 52 % 0.00 in
13:39 29.3 °F 15.1 °F 30.25 in NE 1.6 mph 3.0 mph 55 % 0.00 in
13:44 29.5 °F 14.9 °F 30.25 in NNE 1.0 mph 3.5 mph 54 % 0.00 in
13:45 29.6 °F 15.0 °F 30.25 in NE 1.2 mph 3.5 mph 54 % 0.00 in
13:50 29.5 °F 14.0 °F 30.24 in NE 1.0 mph 3.5 mph 52 % 0.00 in
13:51 29.4 °F 13.9 °F 30.24 in NE 0.4 mph 2.3 mph 52 % 0.00 in
13:56 29.7 °F 15.1 °F 30.24 in Calm   3.0 mph 54 % 0.00 in
13:57 29.8 °F 14.7 °F 30.24 in NE 1.3 mph 3.0 mph 53 % 0.00 in
13:58 29.8 °F 14.7 °F 30.24 in NE 2.0 mph 3.5 mph 53 % 0.00 in
14:03 29.9 °F 14.8 °F 30.24 in NE 0.9 mph 2.3 mph 53 % 0.00 in
14:04 29.8 °F 14.3 °F 30.24 in ENE 3.4 mph 6.9 mph 52 % 0.00 in
14:09 29.6 °F 14.5 °F 30.23 in NNE 1.5 mph 3.5 mph 53 % 0.00 in
14:11 29.5 °F 14.0 °F 30.23 in NNE 0.9 mph 2.3 mph 52 % 0.00 in
14:17 29.4 °F 14.8 °F 30.22 in NNE 2.5 mph 5.0 mph 54 % 0.00 in
14:22 29.1 °F 14.5 °F 30.22 in NE 1.7 mph 3.5 mph 54 % 0.00 in
14:26 29.0 °F 14.4 °F 30.22 in NE 1.4 mph 2.3 mph 54 % 0.00 in
14:30 28.9 °F 14.7 °F 30.21 in NE 1.8 mph 3.5 mph 55 % 0.00 in
14:32 28.8 °F 14.6 °F 30.22 in NE 1.0 mph 2.3 mph 55 % 0.00 in
14:37 28.7 °F 14.6 °F 30.21 in NE 1.7 mph 3.5 mph 55 % 0.00 in
14:43 28.4 °F 14.3 °F 30.21 in NE 2.2 mph 3.5 mph 55 % 0.00 in
14:47 28.2 °F 14.5 °F 30.21 in ENE 2.6 mph 4.6 mph 56 % 0.00 in
14:53 28.0 °F 14.3 °F 30.20 in NE 1.0 mph 3.5 mph 56 % 0.00 in
14:54 27.9 °F 14.6 °F 30.20 in NE 0.9 mph 3.5 mph 57 % 0.00 in
14:58 27.9 °F 15.0 °F 30.20 in NE 2.3 mph 3.5 mph 58 % 0.00 in
15:03 27.8 °F 14.9 °F 30.21 in NE 0.3 mph 2.3 mph 58 % 0.00 in
15:08 27.7 °F 15.2 °F 30.20 in NE 1.2 mph 3.5 mph 59 % 0.00 in
15:13 27.7 °F 15.2 °F 30.20 in NE 1.3 mph 3.5 mph 59 % 0.00 in
15:18 27.6 °F 15.5 °F 30.20 in NE 0.7 mph 2.3 mph 60 % 0.00 in
15:27 27.6 °F 15.1 °F 30.20 in NE 0.2 mph 2.3 mph 59 % 0.00 in
15:32 27.6 °F 15.5 °F 30.20 in Calm   1.2 mph 60 % 0.00 in
15:33 27.6 °F 15.5 °F 30.20 in Calm     60 % 0.00 in
15:38 27.6 °F 15.5 °F 30.19 in NE 1.1 mph 2.3 mph 60 % 0.00 in
15:44 27.7 °F 15.6 °F 30.19 in NE 0.2 mph 2.3 mph 60 % 0.00 in
15:45 27.7 °F 15.6 °F 30.18 in NE 0.5 mph 2.3 mph 60 % 0.00 in
15:50 27.7 °F 15.6 °F 30.19 in NE 0.5 mph 1.2 mph 60 % 0.00 in
15:52 27.7 °F 15.6 °F 30.19 in NE 1.4 mph 3.5 mph 60 % 0.00 in
15:57 27.6 °F 15.5 °F 30.19 in Calm     60 % 0.00 in
16:01 27.6 °F 15.5 °F 30.18 in Calm     60 % 0.00 in
16:06 27.7 °F 16.0 °F 30.18 in Calm     61 % 0.00 in
16:11 27.6 °F 15.9 °F 30.18 in Calm   1.2 mph 61 % 0.00 in
16:16 27.6 °F 15.9 °F 30.19 in Calm     61 % 0.00 in
16:21 27.5 °F 15.8 °F 30.19 in Calm     61 % 0.00 in
16:26 27.4 °F 15.7 °F 30.19 in NE 0.9 mph 2.3 mph 61 % 0.00 in
16:27 27.4 °F 15.7 °F 30.19 in NE 0.5 mph 2.3 mph 61 % 0.00 in
16:32 27.3 °F 15.2 °F 30.19 in Calm     60 % 0.00 in
16:33 27.2 °F 15.1 °F 30.20 in Calm   1.2 mph 60 % 0.00 in
16:38 27.1 °F 14.7 °F 30.20 in Calm     59 % 0.00 in
16:43 27.1 °F 14.7 °F 30.21 in Calm     59 % 0.00 in
16:49 27.0 °F 14.9 °F 30.21 in NE 0.2 mph 1.0 mph 60 % 0.00 in
16:51 26.9 °F 14.9 °F 30.22 in NE 0.9 mph 2.3 mph 60 % 0.00 in
16:56 26.7 °F 14.7 °F 30.22 in Calm     60 % 0.00 in
17:01 26.6 °F 14.9 °F 30.22 in Calm   1.2 mph 61 % 0.00 in
17:02 26.5 °F 14.5 °F 30.22 in Calm     60 % 0.00 in
17:07 26.4 °F 14.4 °F 30.21 in Calm     60 % 0.00 in
17:11 26.2 °F 14.2 °F 30.21 in Calm     60 % 0.00 in
17:13 26.1 °F 14.1 °F 30.21 in Calm   1.2 mph 60 % 0.00 in
17:16 26.0 °F 14.0 °F 30.21 in Calm     60 % 0.00 in
17:21 25.8 °F 13.8 °F 30.20 in Calm     60 % 0.00 in
17:29 25.6 °F 14.0 °F 30.20 in Calm     61 % 0.00 in
17:31 25.6 °F 14.0 °F 30.20 in Calm     61 % 0.00 in
17:36 25.4 °F 13.8 °F 30.20 in NE 0.1 mph 1.2 mph 61 % 0.00 in
17:41 25.3 °F 13.7 °F 30.20 in Calm     61 % 0.00 in
17:43 25.2 °F 13.6 °F 30.20 in Calm     61 % 0.00 in
17:48 25.2 °F 13.6 °F 30.19 in Calm     61 % 0.00 in
17:51 25.1 °F 13.5 °F 30.19 in Calm     61 % 0.00 in
17:54 25.1 °F 13.9 °F 30.19 in Calm     62 % 0.00 in
17:57 25.0 °F 13.8 °F 30.19 in Calm     62 % 0.00 in
18:02 25.0 °F 13.8 °F 30.19 in Calm     62 % 0.00 in
18:05 24.9 °F 13.7 °F 30.19 in Calm     62 % 0.00 in
18:10 24.9 °F 14.4 °F 30.19 in Calm     64 % 0.00 in
18:11 24.9 °F 14.4 °F 30.19 in Calm     64 % 0.00 in
18:16 24.8 °F 14.7 °F 30.19 in Calm     65 % 0.00 in
18:20 24.7 °F 14.6 °F 30.18 in Calm     65 % 0.00 in
18:21 24.7 °F 14.6 °F 30.18 in Calm     65 % 0.00 in
18:26 24.7 °F 14.6 °F 30.18 in Calm   1.0 mph 65 % 0.00 in
18:31 24.5 °F 14.8 °F 30.19 in Calm     66 % 0.00 in
18:36 24.5 °F 14.8 °F 30.20 in ENE 0.2 mph 2.0 mph 66 % 0.00 in
18:41 24.4 °F 15.0 °F 30.19 in East 0.3 mph 1.2 mph 67 % 0.00 in
18:42 24.3 °F 14.9 °F 30.19 in Calm     67 % 0.00 in
18:54 24.2 °F 15.2 °F 30.17 in Calm     68 % 0.00 in
18:59 24.2 °F 15.2 °F 30.17 in Calm   1.2 mph 68 % 0.00 in
19:02 24.2 °F 15.5 °F 30.18 in Calm     69 % 0.00 in
19:06 24.2 °F 15.5 °F 30.17 in Calm     69 % 0.00 in
19:11 24.2 °F 15.5 °F 30.16 in Calm   1.2 mph 69 % 0.00 in
19:14 24.2 °F 15.8 °F 30.16 in Calm     70 % 0.00 in
19:16 24.2 °F 15.8 °F 30.16 in Calm     70 % 0.00 in
19:21 24.3 °F 15.9 °F 30.16 in Calm     70 % 0.00 in
19:23 24.3 °F 15.9 °F 30.16 in Calm     70 % 0.00 in
19:27 24.3 °F 15.9 °F 30.15 in Calm     70 % 0.00 in
19:30 24.3 °F 16.2 °F 30.15 in Calm     71 % 0.00 in
19:34 24.3 °F 15.9 °F 30.15 in Calm     70 % 0.00 in
19:39 24.2 °F 15.8 °F 30.15 in Calm     70 % 0.00 in
19:41 24.2 °F 15.8 °F 30.15 in Calm     70 % 0.00 in
19:45 24.1 °F 15.7 °F 30.15 in Calm     70 % 0.00 in
19:47 24.1 °F 15.7 °F 30.14 in Calm     70 % 0.00 in
19:50 24.1 °F 16.1 °F 30.15 in Calm     71 % 0.00 in
19:55 24.0 °F 16.0 °F 30.14 in Calm     71 % 0.00 in
19:57 24.0 °F 16.0 °F 30.15 in Calm     71 % 0.00 in
20:02 23.9 °F 15.9 °F 30.15 in Calm     71 % 0.00 in
20:04 23.9 °F 15.9 °F 30.15 in Calm     71 % 0.00 in
20:09 23.8 °F 15.4 °F 30.15 in Calm     70 % 0.00 in
20:12 23.7 °F 15.3 °F 30.15 in Calm     70 % 0.00 in
20:17 23.6 °F 15.6 °F 30.14 in Calm     71 % 0.00 in
20:22 23.5 °F 15.5 °F 30.14 in Calm     71 % 0.00 in
20:27 23.4 °F 15.4 °F 30.15 in Calm     71 % 0.00 in
20:32 23.3 °F 15.6 °F 30.14 in Calm     72 % 0.00 in
20:34 23.2 °F 15.5 °F 30.14 in Calm     72 % 0.00 in
20:39 23.1 °F 15.7 °F 30.14 in Calm     73 % 0.00 in
20:44 23.1 °F 15.7 °F 30.14 in Calm     73 % 0.00 in
20:45 23.0 °F 15.6 °F 30.14 in Calm     73 % 0.00 in
20:50 22.9 °F 15.8 °F 30.14 in Calm     74 % 0.00 in
20:51 22.9 °F 15.8 °F 30.14 in Calm     74 % 0.00 in
20:52 22.9 °F 15.8 °F 30.14 in Calm     74 % 0.00 in
21:00 22.8 °F 16.1 °F 30.14 in Calm     75 % 0.00 in
21:05 22.8 °F 16.1 °F 30.14 in Calm     75 % 0.00 in
21:07 22.8 °F 16.1 °F 30.14 in Calm     75 % 0.00 in
21:08 22.8 °F 16.1 °F 30.14 in Calm     75 % 0.00 in
21:13 22.8 °F 16.1 °F 30.14 in Calm     75 % 0.00 in
21:18 22.8 °F 16.1 °F 30.13 in Calm     75 % 0.00 in
21:21 22.9 °F 16.2 °F 30.13 in Calm     75 % 0.00 in
21:26 22.9 °F 16.2 °F 30.13 in Calm     75 % 0.00 in
21:31 22.9 °F 16.2 °F 30.13 in Calm     75 % 0.00 in
21:36 22.9 °F 16.2 °F 30.12 in Calm     75 % 0.00 in
21:39 22.8 °F 16.1 °F 30.12 in Calm     75 % 0.00 in
21:41 22.8 °F 16.1 °F 30.12 in Calm     75 % 0.00 in
21:46 22.8 °F 16.1 °F 30.11 in Calm     75 % 0.00 in
21:49 22.8 °F 16.1 °F 30.11 in Calm     75 % 0.00 in
21:53 22.7 °F 16.0 °F 30.11 in Calm     75 % 0.00 in
21:58 22.7 °F 16.3 °F 30.11 in Calm     76 % 0.00 in
22:03 22.7 °F 16.3 °F 30.10 in Calm     76 % 0.00 in
22:04 22.6 °F 16.2 °F 30.10 in Calm     76 % 0.00 in
22:09 22.6 °F 16.2 °F 30.10 in Calm     76 % 0.00 in
22:12 22.5 °F 16.1 °F 30.09 in Calm     76 % 0.00 in
22:17 22.5 °F 16.1 °F 30.09 in Calm     76 % 0.00 in
22:22 22.4 °F 16.0 °F 30.09 in Calm     76 % 0.00 in
22:24 22.4 °F 16.0 °F 30.08 in Calm     76 % 0.00 in
22:29 22.4 °F 16.0 °F 30.07 in Calm     76 % 0.00 in
22:34 22.4 °F 16.3 °F 30.07 in Calm     77 % 0.00 in
22:38 22.4 °F 16.3 °F 30.07 in East 0.2 mph 1.0 mph 77 % 0.00 in
22:43 22.4 °F 16.6 °F 30.06 in Calm     78 % 0.00 in
22:48 22.4 °F 16.6 °F 30.05 in Calm     78 % 0.00 in
22:51 22.5 °F 16.7 °F 30.05 in Calm     78 % 0.00 in
22:56 22.5 °F 17.0 °F 30.05 in Calm     79 % 0.00 in
22:58 22.5 °F 17.0 °F 30.05 in Calm     79 % 0.00 in
23:01 22.6 °F 17.1 °F 30.05 in East 0.3 mph 2.0 mph 79 % 0.00 in
23:06 22.8 °F 17.6 °F 30.04 in East 0.2 mph 1.2 mph 80 % 0.00 in
23:09 22.9 °F 17.9 °F 30.04 in Calm     81 % 0.00 in
23:10 23.0 °F 18.0 °F 30.04 in East 0.1 mph 1.0 mph 81 % 0.00 in
23:14 23.1 °F 18.1 °F 29.79 in ENE 0.4 mph 3.0 mph 81 % 0.00 in
23:15 23.2 °F 18.2 °F 29.80 in NE 1.7 mph 3.5 mph 81 % 0.00 in
23:16 23.2 °F 18.5 °F 29.79 in NE 1.2 mph 3.5 mph 82 % 0.00 in
23:17 23.4 °F 19.0 °F 30.04 in NNE 4.3 mph 6.9 mph 83 % 0.00 in
23:20 23.7 °F 19.6 °F 30.03 in NNE 5.3 mph 6.9 mph 84 % 0.00 in
23:22 24.0 °F 20.1 °F 30.04 in NE 3.8 mph 6.9 mph 85 % 0.00 in
23:23 24.2 °F 20.6 °F 30.03 in NNE 2.7 mph 5.8 mph 86 % 0.00 in
23:24 24.3 °F 20.7 °F 30.03 in NNE 4.4 mph 5.0 mph 86 % 0.00 in
23:28 24.8 °F 21.2 °F 30.03 in NNE 4.0 mph 8.0 mph 86 % 0.00 in
23:32 25.4 °F 22.1 °F 30.03 in NE 4.5 mph 8.1 mph 87 % 0.00 in
23:37 26.1 °F 22.8 °F 30.02 in NNE 4.4 mph 9.0 mph 87 % 0.00 in
23:38 26.1 °F 22.8 °F 29.78 in NNE 5.6 mph 9.2 mph 87 % 0.00 in
23:41 26.4 °F 23.1 °F 30.02 in NNE 5.3 mph 9.0 mph 87 % 0.00 in
23:42 26.6 °F 23.3 °F 29.78 in NNE 2.4 mph 10.4 mph 87 % 0.00 in
23:44 26.8 °F 23.2 °F 30.02 in NNE 4.3 mph 9.0 mph 86 % 0.00 in
23:47 27.1 °F 23.5 °F 30.02 in NNE 4.4 mph 5.8 mph 86 % 0.00 in
23:52 27.7 °F 23.8 °F 30.02 in ENE 2.1 mph 4.6 mph 85 % 0.00 in
23:53 27.7 °F 23.5 °F 30.02 in ENE 1.1 mph 4.6 mph 84 % 0.00 in
23:55 27.9 °F 23.7 °F 30.02 in ENE 4.5 mph 8.1 mph 84 % 0.00 in
23:56 28.0 °F 23.8 °F 30.02 in ENE 5.0 mph 8.0 mph 84 % 0.00 in
Crab Meadow Weather
Compliments of Weather Underground - 3.5 mb

Script developed by  Jim McMurry - jmcmurry@mwt.net Adapted for the template by  Wim van der Kuil - Leuven-Template.eu

Humidity: Humidity is the amount of water vapor in the air. The term "humidity" refers to relative humidity. Relative humidity is defined as the amount of water vapor in a sample of air compared to the maximum amount of water vapor the air can hold at any specific temperature in a form of 0 to 100%. Relative humidity is important in forecasting weather. Humidity indicates the likelihood of precipitation, dew, or fog. High humidity makes people feel hotter outside in the summer because it reduces the effectiveness of sweating to cool the body by preventing the evaporation of perspiration from the skin.